WMT7AB EDDN-LATI
Flight info
| Callsign | WMT7AB |
|---|---|
| Flight time | 1h 36m |
| Altitude | 37000 |
| Route | BOLSI1G/28 BOLSI Y167 AKANU L603 OLETU Z106 BAVAX M867 RADIZ DCT REKTI DCT NEMEK DCT ELTIB DCT GLOMY DCT PETAK |
| Aircraft | A321/M-SDE1E2E3FGIJ1J4RWXY/LB1 |
Departure
| Time | 2026-05-04 17:43 |
|---|---|
| Airport | Nuremberg Airport (EDDN) |
Arrival
| Time | 2026-05-04 19:19 |
|---|---|
| Airport | Tirana International Airport Mother Teresa (LATI) |
| Time | Latitude | Longitude | Altitude | Speed | Heading |
|---|---|---|---|---|---|
| 2026-05-04 17:22 | 49.49517 | 11.07859 | 1029 ft | 0 kts | 188° |
| 2026-05-04 17:31 | 49.49538 | 11.07862 | 1027 ft | 4 kts | 173° |
| 2026-05-04 17:32 | 49.49569 | 11.07847 | 1028 ft | 0 kts | 156° |
| 2026-05-04 17:34 | 49.49588 | 11.07826 | 1029 ft | 0 kts | 112° |
| 2026-05-04 17:35 | 49.49586 | 11.07832 | 1029 ft | 2 kts | 112° |
| 2026-05-04 17:35 | 49.49579 | 11.07868 | 1028 ft | 5 kts | 105° |
| 2026-05-04 17:36 | 49.49570 | 11.07935 | 1027 ft | 8 kts | 101° |
| 2026-05-04 17:36 | 49.49560 | 11.08031 | 1027 ft | 10 kts | 99° |
| 2026-05-04 17:36 | 49.49549 | 11.08139 | 1028 ft | 11 kts | 98° |
| 2026-05-04 17:36 | 49.49541 | 11.08217 | 1027 ft | 11 kts | 98° |
| 2026-05-04 17:37 | 49.49542 | 11.08334 | 1029 ft | 11 kts | 49° |
| 2026-05-04 17:37 | 49.49607 | 11.08379 | 1028 ft | 10 kts | 34° |
| 2026-05-04 17:37 | 49.49613 | 11.08386 | 1026 ft | 0 kts | 38° |
| 2026-05-04 17:39 | 49.49625 | 11.08406 | 1029 ft | 3 kts | 49° |
| 2026-05-04 17:39 | 49.49646 | 11.08448 | 1028 ft | 6 kts | 55° |
| 2026-05-04 17:39 | 49.49669 | 11.08498 | 1031 ft | 5 kts | 55° |
| 2026-05-04 17:40 | 49.49690 | 11.08536 | 1032 ft | 0 kts | 37° |
| 2026-05-04 17:41 | 49.49696 | 11.08542 | 1032 ft | 4 kts | 34° |
| 2026-05-04 17:41 | 49.49747 | 11.08569 | 1033 ft | 11 kts | 12° |
| 2026-05-04 17:41 | 49.49797 | 11.08552 | 1031 ft | 4 kts | 271° |
| 2026-05-04 17:42 | 49.49798 | 11.08544 | 1031 ft | 0 kts | 276° |
| 2026-05-04 17:42 | 49.49798 | 11.08543 | 1031 ft | 1 kts | 276° |
| 2026-05-04 17:42 | 49.49798 | 11.08539 | 1031 ft | 1 kts | 276° |
| 2026-05-04 17:42 | 49.49819 | 11.08318 | 1031 ft | 57 kts | 279° |
| 2026-05-04 17:43 | 49.49916 | 11.07342 | 1027 ft | 125 kts | 278° |
| 2026-05-04 17:43 | 49.50071 | 11.05774 | 1269 ft | 155 kts | 280° |
| 2026-05-04 17:43 | 49.50237 | 11.04184 | 2068 ft | 149 kts | 282° |
| 2026-05-04 17:43 | 49.50397 | 11.02587 | 2507 ft | 158 kts | 281° |
| 2026-05-04 17:44 | 49.50574 | 11.00805 | 2690 ft | 180 kts | 281° |
| 2026-05-04 17:44 | 49.50771 | 10.98785 | 2883 ft | 203 kts | 280° |
| 2026-05-04 17:44 | 49.50991 | 10.96521 | 3107 ft | 225 kts | 280° |
| 2026-05-04 17:44 | 49.51220 | 10.94008 | 3291 ft | 251 kts | 274° |
| 2026-05-04 17:45 | 49.50889 | 10.91300 | 3782 ft | 267 kts | 246° |
| 2026-05-04 17:45 | 49.50089 | 10.88698 | 4547 ft | 271 kts | 244° |
| 2026-05-04 17:45 | 49.49270 | 10.86068 | 5339 ft | 273 kts | 244° |
| 2026-05-04 17:45 | 49.48447 | 10.83430 | 6217 ft | 273 kts | 243° |
| 2026-05-04 17:46 | 49.47624 | 10.80795 | 7021 ft | 274 kts | 241° |
| 2026-05-04 17:46 | 49.46508 | 10.78441 | 7806 ft | 274 kts | 221° |
| 2026-05-04 17:46 | 49.44935 | 10.76848 | 8645 ft | 271 kts | 202° |
| 2026-05-04 17:46 | 49.43102 | 10.76195 | 9477 ft | 272 kts | 184° |
| 2026-05-04 17:47 | 49.41201 | 10.76164 | 10210 ft | 277 kts | 182° |
| 2026-05-04 17:47 | 49.39224 | 10.76136 | 10386 ft | 299 kts | 182° |
| 2026-05-04 17:47 | 49.37037 | 10.76101 | 10633 ft | 318 kts | 182° |
| 2026-05-04 17:47 | 49.34802 | 10.76065 | 11186 ft | 325 kts | 182° |
| 2026-05-04 17:48 | 49.32523 | 10.76028 | 11822 ft | 329 kts | 182° |
| 2026-05-04 17:48 | 49.30218 | 10.75991 | 12461 ft | 334 kts | 182° |
| 2026-05-04 17:48 | 49.27887 | 10.75953 | 13094 ft | 337 kts | 182° |
| 2026-05-04 17:48 | 49.25525 | 10.75914 | 13713 ft | 342 kts | 182° |
| 2026-05-04 17:49 | 49.23146 | 10.75603 | 14261 ft | 345 kts | 192° |
| 2026-05-04 17:49 | 49.20840 | 10.74568 | 14853 ft | 347 kts | 201° |
| 2026-05-04 17:49 | 49.18562 | 10.73271 | 15453 ft | 351 kts | 201° |
| 2026-05-04 17:49 | 49.16259 | 10.71982 | 16049 ft | 354 kts | 201° |
| 2026-05-04 17:50 | 49.13931 | 10.70692 | 16638 ft | 358 kts | 201° |
| 2026-05-04 17:50 | 49.11510 | 10.69753 | 17193 ft | 364 kts | 187° |
| 2026-05-04 17:50 | 49.08969 | 10.70035 | 17738 ft | 373 kts | 167° |
| 2026-05-04 17:50 | 49.06615 | 10.71650 | 18262 ft | 383 kts | 147° |
| 2026-05-04 17:51 | 49.04542 | 10.74246 | 18751 ft | 388 kts | 142° |
| 2026-05-04 17:51 | 49.02467 | 10.76982 | 19268 ft | 391 kts | 142° |
| 2026-05-04 17:51 | 49.00438 | 10.79666 | 19772 ft | 393 kts | 142° |
| 2026-05-04 17:51 | 48.98364 | 10.82403 | 20314 ft | 395 kts | 142° |
| 2026-05-04 17:52 | 48.96277 | 10.85152 | 20847 ft | 398 kts | 142° |
| 2026-05-04 17:52 | 48.94175 | 10.87910 | 21381 ft | 400 kts | 142° |
| 2026-05-04 17:52 | 48.92056 | 10.90675 | 21897 ft | 403 kts | 142° |
| 2026-05-04 17:52 | 48.89920 | 10.93452 | 22394 ft | 405 kts | 142° |
| 2026-05-04 17:53 | 48.87769 | 10.96249 | 22883 ft | 408 kts | 142° |
| 2026-05-04 17:53 | 48.85606 | 10.99061 | 23361 ft | 411 kts | 142° |
| 2026-05-04 17:53 | 48.83426 | 11.01895 | 23730 ft | 415 kts | 142° |
| 2026-05-04 17:53 | 48.81227 | 11.04753 | 24102 ft | 418 kts | 142° |
| 2026-05-04 17:54 | 48.79014 | 11.07625 | 24476 ft | 420 kts | 142° |
| 2026-05-04 17:54 | 48.76788 | 11.10511 | 24856 ft | 422 kts | 142° |
| 2026-05-04 17:54 | 48.74550 | 11.13409 | 25269 ft | 424 kts | 142° |
| 2026-05-04 17:54 | 48.72300 | 11.16316 | 25658 ft | 426 kts | 142° |
| 2026-05-04 17:55 | 48.70039 | 11.19232 | 26023 ft | 428 kts | 142° |
| 2026-05-04 17:55 | 48.67764 | 11.22161 | 26383 ft | 431 kts | 142° |
| 2026-05-04 17:55 | 48.65477 | 11.25105 | 26720 ft | 433 kts | 142° |
| 2026-05-04 17:55 | 48.63174 | 11.28065 | 27070 ft | 435 kts | 142° |
| 2026-05-04 17:56 | 48.60863 | 11.31036 | 27421 ft | 438 kts | 142° |
| 2026-05-04 17:56 | 48.58534 | 11.34024 | 27758 ft | 440 kts | 142° |
| 2026-05-04 17:56 | 48.56192 | 11.37023 | 28119 ft | 442 kts | 142° |
| 2026-05-04 17:56 | 48.53840 | 11.40026 | 28467 ft | 444 kts | 142° |
| 2026-05-04 17:57 | 48.51474 | 11.43043 | 28833 ft | 446 kts | 142° |
| 2026-05-04 17:57 | 48.49095 | 11.46077 | 29137 ft | 449 kts | 142° |
| 2026-05-04 17:57 | 48.46705 | 11.49121 | 29449 ft | 451 kts | 142° |
| 2026-05-04 17:57 | 48.44301 | 11.52182 | 29768 ft | 454 kts | 142° |
| 2026-05-04 17:58 | 48.41883 | 11.55257 | 30081 ft | 456 kts | 142° |
| 2026-05-04 17:58 | 48.39455 | 11.58341 | 30366 ft | 458 kts | 142° |
| 2026-05-04 17:58 | 48.37019 | 11.61433 | 30672 ft | 459 kts | 142° |
| 2026-05-04 17:58 | 48.34572 | 11.64536 | 31009 ft | 459 kts | 142° |
| 2026-05-04 17:59 | 48.32136 | 11.67621 | 31437 ft | 457 kts | 142° |
| 2026-05-04 17:59 | 48.29715 | 11.70681 | 31918 ft | 453 kts | 143° |
| 2026-05-04 17:59 | 48.24912 | 11.76730 | 32796 ft | 449 kts | 143° |
| 2026-05-04 18:00 | 48.22526 | 11.79728 | 33213 ft | 447 kts | 143° |
| 2026-05-04 18:00 | 48.20147 | 11.82713 | 33618 ft | 445 kts | 143° |
| 2026-05-04 18:00 | 48.17778 | 11.85686 | 34005 ft | 443 kts | 143° |
| 2026-05-04 18:00 | 48.15416 | 11.88647 | 34332 ft | 443 kts | 143° |
| 2026-05-04 18:01 | 48.13057 | 11.91603 | 34618 ft | 443 kts | 143° |
| 2026-05-04 18:01 | 48.10695 | 11.94561 | 34886 ft | 443 kts | 143° |
| 2026-05-04 18:01 | 48.08328 | 11.97516 | 35153 ft | 443 kts | 143° |
| 2026-05-04 18:02 | 48.03591 | 12.03408 | 35636 ft | 445 kts | 143° |
| 2026-05-04 18:02 | 48.01212 | 12.06366 | 35879 ft | 445 kts | 143° |
| 2026-05-04 18:02 | 47.98830 | 12.09324 | 36153 ft | 445 kts | 143° |
| 2026-05-04 18:02 | 47.96459 | 12.12300 | 36406 ft | 446 kts | 142° |
| 2026-05-04 18:03 | 47.94146 | 12.15386 | 36651 ft | 447 kts | 140° |
| 2026-05-04 18:03 | 47.91882 | 12.18566 | 36866 ft | 448 kts | 139° |
| 2026-05-04 18:03 | 47.87441 | 12.25020 | 36920 ft | 449 kts | 139° |
| 2026-05-04 18:04 | 47.82961 | 12.31474 | 36928 ft | 448 kts | 139° |
| 2026-05-04 18:05 | 47.76157 | 12.41002 | 36914 ft | 448 kts | 140° |
| 2026-05-04 18:05 | 47.71614 | 12.47317 | 36926 ft | 447 kts | 140° |
| 2026-05-04 18:06 | 47.64799 | 12.56795 | 36940 ft | 448 kts | 140° |
| 2026-05-04 18:06 | 47.60251 | 12.63113 | 36943 ft | 448 kts | 140° |
| 2026-05-04 18:07 | 47.55698 | 12.69431 | 36945 ft | 449 kts | 140° |
| 2026-05-04 18:07 | 47.51134 | 12.75727 | 36935 ft | 449 kts | 140° |
| 2026-05-04 18:08 | 47.46566 | 12.82028 | 36957 ft | 449 kts | 140° |
| 2026-05-04 18:08 | 47.41993 | 12.88321 | 36963 ft | 449 kts | 140° |
| 2026-05-04 18:09 | 47.32857 | 13.00827 | 36987 ft | 450 kts | 140° |
| 2026-05-04 18:10 | 47.28269 | 13.07091 | 37014 ft | 450 kts | 140° |
| 2026-05-04 18:10 | 47.23678 | 13.13349 | 37003 ft | 450 kts | 139° |
| 2026-05-04 18:11 | 47.19077 | 13.19598 | 37024 ft | 450 kts | 140° |
| 2026-05-04 18:11 | 47.14478 | 13.25824 | 37026 ft | 450 kts | 140° |
| 2026-05-04 18:12 | 47.09873 | 13.32046 | 37038 ft | 450 kts | 140° |
| 2026-05-04 18:12 | 47.05253 | 13.38273 | 37043 ft | 451 kts | 140° |
| 2026-05-04 18:13 | 47.00628 | 13.44499 | 37053 ft | 451 kts | 139° |
| 2026-05-04 18:14 | 46.95220 | 13.51762 | 37058 ft | 451 kts | 140° |
| 2026-05-04 18:14 | 46.92077 | 13.55964 | 37056 ft | 451 kts | 140° |
| 2026-05-04 18:15 | 46.82773 | 13.68332 | 37047 ft | 453 kts | 140° |
| 2026-05-04 18:16 | 46.78114 | 13.74530 | 37056 ft | 453 kts | 140° |
| 2026-05-04 18:16 | 46.73452 | 13.80730 | 37045 ft | 454 kts | 140° |
| 2026-05-04 18:17 | 46.66442 | 13.90005 | 37059 ft | 454 kts | 140° |
| 2026-05-04 18:18 | 46.59401 | 13.99249 | 37057 ft | 455 kts | 140° |
| 2026-05-04 18:18 | 46.54707 | 14.05413 | 37058 ft | 455 kts | 140° |
| 2026-05-04 18:19 | 46.47654 | 14.14660 | 37036 ft | 456 kts | 140° |
| 2026-05-04 18:19 | 46.42931 | 14.20813 | 37041 ft | 457 kts | 140° |
| 2026-05-04 18:20 | 46.38207 | 14.26967 | 37064 ft | 457 kts | 140° |
| 2026-05-04 18:20 | 46.33477 | 14.33107 | 37071 ft | 457 kts | 140° |
| 2026-05-04 18:21 | 46.28741 | 14.39240 | 37078 ft | 457 kts | 140° |
| 2026-05-04 18:21 | 46.24001 | 14.45359 | 37076 ft | 457 kts | 140° |
| 2026-05-04 18:22 | 46.20054 | 14.50435 | 37071 ft | 457 kts | 140° |
| 2026-05-04 18:22 | 46.14533 | 14.57543 | 37071 ft | 458 kts | 140° |
| 2026-05-04 18:23 | 46.09779 | 14.63653 | 37076 ft | 458 kts | 140° |
| 2026-05-04 18:23 | 46.05789 | 14.68772 | 37080 ft | 458 kts | 140° |
| 2026-05-04 18:24 | 46.01054 | 14.74825 | 37076 ft | 458 kts | 140° |
| 2026-05-04 18:24 | 45.96248 | 14.80937 | 37068 ft | 458 kts | 140° |
| 2026-05-04 18:25 | 45.91464 | 14.87001 | 37069 ft | 459 kts | 140° |
| 2026-05-04 18:25 | 45.86678 | 14.93076 | 37069 ft | 459 kts | 140° |
| 2026-05-04 18:26 | 45.81889 | 14.99147 | 37071 ft | 460 kts | 140° |
| 2026-05-04 18:26 | 45.77089 | 15.05199 | 37070 ft | 460 kts | 140° |
| 2026-05-04 18:27 | 45.72316 | 15.11203 | 37061 ft | 460 kts | 140° |
| 2026-05-04 18:27 | 45.67512 | 15.17240 | 37066 ft | 460 kts | 140° |
| 2026-05-04 18:28 | 45.62702 | 15.23267 | 37055 ft | 460 kts | 140° |
| 2026-05-04 18:28 | 45.57888 | 15.29282 | 37065 ft | 460 kts | 140° |
| 2026-05-04 18:29 | 45.53056 | 15.35272 | 37056 ft | 460 kts | 141° |
| 2026-05-04 18:29 | 45.48196 | 15.41211 | 37058 ft | 460 kts | 141° |
| 2026-05-04 18:30 | 45.40896 | 15.50117 | 37058 ft | 461 kts | 141° |
| 2026-05-04 18:31 | 45.36032 | 15.56059 | 37064 ft | 461 kts | 141° |
| 2026-05-04 18:31 | 45.31160 | 15.61993 | 37067 ft | 461 kts | 141° |
| 2026-05-04 18:32 | 45.26283 | 15.67915 | 37056 ft | 461 kts | 141° |
| 2026-05-04 18:32 | 45.21397 | 15.73829 | 37061 ft | 462 kts | 141° |
| 2026-05-04 18:33 | 45.16499 | 15.79731 | 37063 ft | 462 kts | 141° |
| 2026-05-04 18:33 | 45.11635 | 15.85598 | 37066 ft | 463 kts | 141° |
| 2026-05-04 18:34 | 45.06735 | 15.91503 | 37072 ft | 463 kts | 141° |
| 2026-05-04 18:34 | 45.01796 | 15.97442 | 37065 ft | 463 kts | 141° |
| 2026-05-04 18:35 | 44.96917 | 16.03294 | 37071 ft | 464 kts | 141° |
| 2026-05-04 18:35 | 44.91994 | 16.09178 | 37078 ft | 464 kts | 141° |
| 2026-05-04 18:36 | 44.87060 | 16.15047 | 37083 ft | 464 kts | 141° |
| 2026-05-04 18:36 | 44.82121 | 16.20910 | 37095 ft | 464 kts | 141° |
| 2026-05-04 18:37 | 44.77178 | 16.26773 | 37086 ft | 465 kts | 141° |
| 2026-05-04 18:37 | 44.72228 | 16.32630 | 37097 ft | 465 kts | 141° |
| 2026-05-04 18:38 | 44.67277 | 16.38482 | 37101 ft | 465 kts | 141° |
| 2026-05-04 18:38 | 44.62318 | 16.44324 | 37113 ft | 465 kts | 141° |
| 2026-05-04 18:39 | 44.57354 | 16.50152 | 37110 ft | 465 kts | 141° |
| 2026-05-04 18:39 | 44.52387 | 16.55971 | 37113 ft | 465 kts | 141° |
| 2026-05-04 18:40 | 44.47419 | 16.61792 | 37112 ft | 466 kts | 141° |
| 2026-05-04 18:40 | 44.42442 | 16.67600 | 37124 ft | 466 kts | 141° |
| 2026-05-04 18:41 | 44.37455 | 16.73399 | 37136 ft | 466 kts | 141° |
| 2026-05-04 18:41 | 44.32467 | 16.79202 | 37124 ft | 466 kts | 141° |
| 2026-05-04 18:42 | 44.27480 | 16.84995 | 37138 ft | 467 kts | 141° |
| 2026-05-04 18:42 | 44.22474 | 16.90771 | 37132 ft | 467 kts | 141° |
| 2026-05-04 18:43 | 44.17495 | 16.96498 | 37150 ft | 467 kts | 141° |
| 2026-05-04 18:43 | 44.12483 | 17.02262 | 37137 ft | 467 kts | 141° |
| 2026-05-04 18:44 | 44.07463 | 17.08012 | 37132 ft | 468 kts | 141° |
| 2026-05-04 18:44 | 44.02442 | 17.13773 | 37138 ft | 468 kts | 141° |
| 2026-05-04 18:45 | 43.97419 | 17.19536 | 37142 ft | 468 kts | 141° |
| 2026-05-04 18:45 | 43.92386 | 17.25287 | 37140 ft | 469 kts | 141° |
| 2026-05-04 18:46 | 43.87337 | 17.31019 | 37144 ft | 469 kts | 141° |
| 2026-05-04 18:46 | 43.82282 | 17.36740 | 37146 ft | 469 kts | 141° |
| 2026-05-04 18:47 | 43.77225 | 17.42472 | 37141 ft | 470 kts | 141° |
| 2026-05-04 18:47 | 43.72162 | 17.48193 | 37149 ft | 470 kts | 141° |
| 2026-05-04 18:48 | 43.67094 | 17.53913 | 37149 ft | 471 kts | 141° |
| 2026-05-04 18:48 | 43.62021 | 17.59624 | 37134 ft | 470 kts | 141° |
| 2026-05-04 18:49 | 43.56974 | 17.65276 | 37128 ft | 471 kts | 141° |
| 2026-05-04 18:49 | 43.51750 | 17.70714 | 37132 ft | 471 kts | 145° |
| 2026-05-04 18:50 | 43.46324 | 17.75789 | 37138 ft | 472 kts | 146° |
| 2026-05-04 18:50 | 43.40870 | 17.80814 | 37144 ft | 472 kts | 146° |
| 2026-05-04 18:51 | 43.35452 | 17.85922 | 37132 ft | 472 kts | 145° |
| 2026-05-04 18:51 | 43.30060 | 17.91074 | 37130 ft | 472 kts | 145° |
| 2026-05-04 18:52 | 43.24664 | 17.96209 | 37127 ft | 472 kts | 145° |
| 2026-05-04 18:52 | 43.19253 | 18.01321 | 37136 ft | 472 kts | 146° |
| 2026-05-04 18:53 | 43.13840 | 18.06418 | 37132 ft | 472 kts | 146° |
| 2026-05-04 18:53 | 43.08418 | 18.11513 | 37136 ft | 473 kts | 146° |
| 2026-05-04 18:54 | 43.02990 | 18.16604 | 37154 ft | 473 kts | 146° |
| 2026-05-04 18:54 | 42.97559 | 18.21704 | 37157 ft | 474 kts | 146° |
| 2026-05-04 18:55 | 42.92158 | 18.26754 | 37156 ft | 474 kts | 146° |
| 2026-05-04 18:55 | 42.83985 | 18.34376 | 36995 ft | 475 kts | 146° |
| 2026-05-04 18:56 | 42.81256 | 18.36911 | 36733 ft | 474 kts | 146° |
| 2026-05-04 18:56 | 42.78531 | 18.39438 | 36464 ft | 475 kts | 146° |
| 2026-05-04 18:56 | 42.75796 | 18.41961 | 36208 ft | 475 kts | 147° |
| 2026-05-04 18:56 | 42.72994 | 18.44356 | 35962 ft | 476 kts | 149° |
| 2026-05-04 18:57 | 42.70124 | 18.46602 | 35699 ft | 477 kts | 151° |
| 2026-05-04 18:57 | 42.67208 | 18.48756 | 35333 ft | 478 kts | 152° |
| 2026-05-04 18:57 | 42.64268 | 18.50874 | 34774 ft | 478 kts | 152° |
| 2026-05-04 18:57 | 42.61335 | 18.52992 | 34236 ft | 477 kts | 152° |
| 2026-05-04 18:58 | 42.58419 | 18.55138 | 33658 ft | 476 kts | 151° |
| 2026-05-04 18:58 | 42.55535 | 18.57304 | 33138 ft | 472 kts | 151° |
| 2026-05-04 18:58 | 42.52679 | 18.59476 | 32606 ft | 470 kts | 150° |
| 2026-05-04 18:58 | 42.49844 | 18.61647 | 32078 ft | 467 kts | 150° |
| 2026-05-04 18:59 | 42.47024 | 18.63804 | 31546 ft | 464 kts | 150° |
| 2026-05-04 18:59 | 42.44224 | 18.65937 | 31023 ft | 461 kts | 151° |
| 2026-05-04 18:59 | 42.41432 | 18.68053 | 30503 ft | 459 kts | 151° |
| 2026-05-04 18:59 | 42.38654 | 18.70151 | 29948 ft | 457 kts | 151° |
| 2026-05-04 19:00 | 42.35889 | 18.72228 | 29426 ft | 453 kts | 151° |
| 2026-05-04 19:00 | 42.33147 | 18.74285 | 28929 ft | 448 kts | 151° |
| 2026-05-04 19:00 | 42.30434 | 18.76324 | 28426 ft | 444 kts | 151° |
| 2026-05-04 19:00 | 42.27745 | 18.78349 | 27966 ft | 440 kts | 150° |
| 2026-05-04 19:01 | 42.25079 | 18.80354 | 27474 ft | 437 kts | 150° |
| 2026-05-04 19:01 | 42.22433 | 18.82338 | 27018 ft | 433 kts | 150° |
| 2026-05-04 19:01 | 42.19808 | 18.84305 | 26572 ft | 430 kts | 150° |
| 2026-05-04 19:01 | 42.17200 | 18.86261 | 26122 ft | 427 kts | 150° |
| 2026-05-04 19:02 | 42.14609 | 18.88201 | 25666 ft | 425 kts | 150° |
| 2026-05-04 19:02 | 42.12030 | 18.90129 | 25229 ft | 423 kts | 150° |
| 2026-05-04 19:02 | 42.09458 | 18.92048 | 24776 ft | 422 kts | 150° |
| 2026-05-04 19:02 | 42.06897 | 18.93959 | 24326 ft | 420 kts | 150° |
| 2026-05-04 19:03 | 42.04341 | 18.95866 | 23863 ft | 420 kts | 150° |
| 2026-05-04 19:03 | 42.01786 | 18.97769 | 23332 ft | 419 kts | 150° |
| 2026-05-04 19:03 | 41.99245 | 18.99661 | 22862 ft | 416 kts | 149° |
| 2026-05-04 19:03 | 41.96721 | 19.01538 | 22388 ft | 413 kts | 149° |
| 2026-05-04 19:04 | 41.94211 | 19.03400 | 21904 ft | 411 kts | 149° |
| 2026-05-04 19:04 | 41.91715 | 19.05249 | 21407 ft | 408 kts | 149° |
| 2026-05-04 19:04 | 41.89236 | 19.07082 | 20940 ft | 406 kts | 149° |
| 2026-05-04 19:04 | 41.86769 | 19.08906 | 20467 ft | 403 kts | 149° |
| 2026-05-04 19:05 | 41.84360 | 19.10687 | 19994 ft | 401 kts | 149° |
| 2026-05-04 19:05 | 41.81934 | 19.12479 | 19592 ft | 396 kts | 149° |
| 2026-05-04 19:05 | 41.79512 | 19.14268 | 19007 ft | 397 kts | 149° |
| 2026-05-04 19:05 | 41.77100 | 19.16052 | 18562 ft | 395 kts | 149° |
| 2026-05-04 19:06 | 41.74710 | 19.17819 | 18032 ft | 392 kts | 149° |
| 2026-05-04 19:06 | 41.72344 | 19.19566 | 17622 ft | 386 kts | 149° |
| 2026-05-04 19:06 | 41.69996 | 19.21297 | 17029 ft | 386 kts | 149° |
| 2026-05-04 19:06 | 41.67660 | 19.23016 | 16601 ft | 380 kts | 149° |
| 2026-05-04 19:07 | 41.65339 | 19.24718 | 16102 ft | 378 kts | 149° |
| 2026-05-04 19:07 | 41.63040 | 19.26405 | 15584 ft | 376 kts | 149° |
| 2026-05-04 19:07 | 41.60763 | 19.28076 | 15112 ft | 373 kts | 149° |
| 2026-05-04 19:07 | 41.58503 | 19.29731 | 14687 ft | 369 kts | 149° |
| 2026-05-04 19:08 | 41.56254 | 19.31377 | 14179 ft | 367 kts | 149° |
| 2026-05-04 19:08 | 41.54020 | 19.33009 | 13711 ft | 364 kts | 149° |
| 2026-05-04 19:08 | 41.51810 | 19.34621 | 13263 ft | 360 kts | 149° |
| 2026-05-04 19:08 | 41.49623 | 19.36215 | 12818 ft | 356 kts | 149° |
| 2026-05-04 19:09 | 41.47467 | 19.37789 | 12381 ft | 351 kts | 149° |
| 2026-05-04 19:09 | 41.45334 | 19.39345 | 11960 ft | 347 kts | 149° |
| 2026-05-04 19:09 | 41.43227 | 19.40886 | 11537 ft | 343 kts | 149° |
| 2026-05-04 19:09 | 41.41143 | 19.42408 | 11119 ft | 340 kts | 149° |
| 2026-05-04 19:10 | 41.39081 | 19.43913 | 10687 ft | 336 kts | 149° |
| 2026-05-04 19:10 | 41.37036 | 19.45401 | 10288 ft | 333 kts | 149° |
| 2026-05-04 19:10 | 41.35049 | 19.46842 | 10082 ft | 324 kts | 149° |
| 2026-05-04 19:10 | 41.33108 | 19.48248 | 9939 ft | 312 kts | 149° |
| 2026-05-04 19:11 | 41.31233 | 19.49607 | 9714 ft | 304 kts | 149° |
| 2026-05-04 19:11 | 41.29380 | 19.50952 | 9330 ft | 302 kts | 149° |
| 2026-05-04 19:11 | 41.27543 | 19.52285 | 8974 ft | 300 kts | 149° |
| 2026-05-04 19:11 | 41.25719 | 19.53609 | 8609 ft | 297 kts | 149° |
| 2026-05-04 19:12 | 41.23911 | 19.54918 | 8263 ft | 295 kts | 149° |
| 2026-05-04 19:12 | 41.20339 | 19.57510 | 7541 ft | 291 kts | 148° |
| 2026-05-04 19:12 | 41.18790 | 19.59240 | 6896 ft | 291 kts | 126° |
| 2026-05-04 19:13 | 41.17845 | 19.61543 | 6475 ft | 280 kts | 106° |
| 2026-05-04 19:13 | 41.17564 | 19.64040 | 6078 ft | 270 kts | 86° |
| 2026-05-04 19:13 | 41.17738 | 19.66473 | 5704 ft | 261 kts | 83° |
| 2026-05-04 19:13 | 41.17861 | 19.68041 | 5474 ft | 256 kts | 83° |
| 2026-05-04 19:14 | 41.18037 | 19.70356 | 5127 ft | 248 kts | 84° |
| 2026-05-04 19:14 | 41.18330 | 19.72538 | 4790 ft | 236 kts | 66° |
| 2026-05-04 19:14 | 41.19326 | 19.74159 | 4459 ft | 225 kts | 32° |
| 2026-05-04 19:14 | 41.20785 | 19.74757 | 4152 ft | 220 kts | 360° |
| 2026-05-04 19:15 | 41.22279 | 19.74429 | 3848 ft | 216 kts | 350° |
| 2026-05-04 19:15 | 41.23733 | 19.74184 | 3584 ft | 205 kts | 355° |
| 2026-05-04 19:15 | 41.25580 | 19.73992 | 3189 ft | 193 kts | 356° |
| 2026-05-04 19:15 | 41.26442 | 19.73908 | 3048 ft | 181 kts | 356° |
| 2026-05-04 19:16 | 41.27641 | 19.73784 | 2817 ft | 168 kts | 356° |
| 2026-05-04 19:16 | 41.28784 | 19.73657 | 2608 ft | 163 kts | 355° |
| 2026-05-04 19:16 | 41.29903 | 19.73525 | 2406 ft | 161 kts | 355° |
| 2026-05-04 19:16 | 41.31009 | 19.73390 | 2205 ft | 157 kts | 355° |
| 2026-05-04 19:17 | 41.32061 | 19.73261 | 2015 ft | 149 kts | 355° |
| 2026-05-04 19:17 | 41.33078 | 19.73134 | 1787 ft | 146 kts | 355° |
| 2026-05-04 19:17 | 41.34083 | 19.73006 | 1557 ft | 144 kts | 354° |
| 2026-05-04 19:17 | 41.35079 | 19.72879 | 1334 ft | 144 kts | 354° |
| 2026-05-04 19:18 | 41.36072 | 19.72750 | 1101 ft | 143 kts | 354° |
| 2026-05-04 19:18 | 41.37062 | 19.72635 | 889 ft | 142 kts | 356° |
| 2026-05-04 19:18 | 41.38047 | 19.72533 | 672 ft | 141 kts | 353° |
| 2026-05-04 19:18 | 41.39021 | 19.72386 | 482 ft | 141 kts | 354° |
| 2026-05-04 19:19 | 41.39989 | 19.72258 | 254 ft | 139 kts | 354° |
| 2026-05-04 19:19 | 41.40926 | 19.72129 | 129 ft | 125 kts | 353° |
| 2026-05-04 19:19 | 41.41597 | 19.72038 | 120 ft | 57 kts | 355° |
| 2026-05-04 19:19 | 41.41820 | 19.72011 | 118 ft | 26 kts | 355° |
| 2026-05-04 19:20 | 41.41872 | 19.71973 | 120 ft | 5 kts | 279° |
| 2026-05-04 19:20 | 41.41876 | 19.71903 | 120 ft | 10 kts | 267° |
| 2026-05-04 19:20 | 41.41872 | 19.71805 | 120 ft | 11 kts | 266° |
| 2026-05-04 19:20 | 41.41863 | 19.71697 | 120 ft | 8 kts | 262° |
| 2026-05-04 19:21 | 41.41869 | 19.71618 | 119 ft | 9 kts | 310° |
| 2026-05-04 19:21 | 41.41933 | 19.71579 | 119 ft | 11 kts | 355° |
| 2026-05-04 19:21 | 41.42007 | 19.71575 | 116 ft | 9 kts | 356° |
| 2026-05-04 19:21 | 41.42029 | 19.71510 | 119 ft | 9 kts | 265° |
| 2026-05-04 19:22 | 41.42028 | 19.71504 | 119 ft | 0 kts | 265° |